createdAt,value
2019-05-11T00:01:45.949Z,5.20
2019-05-11T00:04:35.871Z,5.23
2019-05-11T00:07:25.930Z,6.10
2019-05-11T00:10:16.342Z,5.60
2019-05-11T00:13:06.350Z,5.90
2019-05-11T00:15:56.634Z,5.70
2019-05-11T00:18:47.171Z,5.87
2019-05-11T00:21:37.471Z,5.90
2019-05-11T00:24:29.625Z,6.17
2019-05-11T00:27:20.432Z,6.17
2019-05-11T00:30:10.923Z,6.63
2019-05-11T00:33:01.121Z,6.20
2019-05-11T00:35:52.423Z,7.07
2019-05-11T00:38:42.737Z,6.43
2019-05-11T00:41:33.035Z,5.97
2019-05-11T00:44:23.317Z,6.63
2019-05-11T00:47:13.713Z,5.77
2019-05-11T00:50:03.900Z,6.30
2019-05-11T00:52:54.514Z,6.00
2019-05-11T00:55:45.621Z,5.90
2019-05-11T00:58:36.014Z,6.80
2019-05-11T01:01:26.494Z,7.10
2019-05-11T01:04:16.826Z,7.20
2019-05-11T01:07:06.844Z,6.90
2019-05-11T01:09:57.252Z,8.17
2019-05-11T01:12:47.251Z,6.27
2019-05-11T01:15:37.533Z,6.07
2019-05-11T01:18:27.817Z,6.27
2019-05-11T01:21:18.124Z,6.27
2019-05-11T01:24:08.246Z,6.03
2019-05-11T01:26:58.921Z,5.80
2019-05-11T01:29:49.086Z,6.40
2019-05-11T01:32:39.076Z,6.10
2019-05-11T01:35:29.293Z,6.80
2019-05-11T01:38:19.422Z,7.23
2019-05-11T01:41:09.454Z,7.13
2019-05-11T01:43:59.699Z,6.63
2019-05-11T01:46:49.809Z,6.17
2019-05-11T01:49:40.065Z,6.13
2019-05-11T01:52:30.463Z,6.03
2019-05-11T01:55:20.851Z,6.37
2019-05-11T01:58:11.181Z,6.00
2019-05-11T02:01:01.348Z,6.00
2019-05-11T02:03:51.694Z,6.80
2019-05-11T02:06:42.787Z,6.50
2019-05-11T02:09:33.945Z,6.43
2019-05-11T02:12:23.905Z,6.93
2019-05-11T02:15:13.982Z,6.47
2019-05-11T02:18:04.062Z,7.03
2019-05-11T02:20:54.401Z,6.87
2019-05-11T02:23:44.807Z,6.97
2019-05-11T02:26:34.895Z,6.00
2019-05-11T02:29:24.966Z,6.10
2019-05-11T02:32:15.270Z,5.70
2019-05-11T02:35:05.392Z,6.20
2019-05-11T02:37:55.416Z,7.10
2019-05-11T02:40:45.595Z,6.43
2019-05-11T02:43:35.567Z,5.87
2019-05-11T02:46:25.932Z,5.80
2019-05-11T02:49:16.154Z,6.03
2019-05-11T02:52:06.448Z,6.10
2019-05-11T02:54:56.857Z,5.63
2019-05-11T02:57:47.139Z,6.40
2019-05-11T03:00:41.774Z,6.23
2019-05-11T03:03:32.222Z,5.67
2019-05-11T03:06:22.536Z,5.90
2019-05-11T03:09:12.829Z,5.70
2019-05-11T03:12:03.039Z,5.60
2019-05-11T03:14:53.407Z,5.77
2019-05-11T03:17:44.710Z,5.83
2019-05-11T03:20:38.617Z,5.60
2019-05-11T03:23:33.140Z,6.17
2019-05-11T03:26:24.614Z,5.63
2019-05-11T03:29:15.983Z,6.23
2019-05-11T03:32:06.488Z,5.97
2019-05-11T03:34:56.769Z,5.73
2019-05-11T03:37:47.078Z,5.30
2019-05-11T03:40:37.431Z,6.13
2019-05-11T03:43:27.644Z,5.90
2019-05-11T03:46:20.819Z,5.60
2019-05-11T03:49:11.100Z,5.63
2019-05-11T03:52:01.552Z,5.50
2019-05-11T03:54:52.100Z,5.40
2019-05-11T03:57:42.389Z,5.37
2019-05-11T04:00:32.598Z,5.37
2019-05-11T04:03:22.925Z,4.80
2019-05-11T04:06:13.320Z,4.83
2019-05-11T04:09:06.115Z,4.10
2019-05-11T04:11:56.461Z,4.63
2019-05-11T04:14:46.537Z,4.23
2019-05-11T04:17:37.647Z,4.30
2019-05-11T04:20:28.087Z,3.90
2019-05-11T04:23:18.235Z,4.10
2019-05-11T04:26:08.753Z,3.73
2019-05-11T04:28:59.945Z,3.30
2019-05-11T04:31:51.071Z,3.37
2019-05-11T04:34:41.997Z,3.17
2019-05-11T04:37:32.806Z,3.27
2019-05-11T04:40:23.607Z,3.30
2019-05-11T04:43:14.381Z,3.17
2019-05-11T04:46:06.028Z,3.47
2019-05-11T04:48:56.784Z,3.90
2019-05-11T04:51:47.600Z,3.95
2019-05-11T04:54:38.584Z,5.17
2019-05-11T04:57:29.449Z,4.20
2019-05-11T05:00:20.068Z,4.28
2019-05-11T05:03:10.908Z,3.77
2019-05-11T05:06:20.990Z,3.50
2019-05-11T05:08:58.312Z,3.70
2019-05-11T05:11:46.789Z,3.70
2019-05-11T05:14:37.425Z,3.37
2019-05-11T05:17:29.018Z,3.20
2019-05-11T05:20:19.763Z,3.05
2019-05-11T05:23:10.750Z,3.02
2019-05-11T05:26:01.706Z,3.02
2019-05-11T05:28:52.404Z,2.90
2019-05-11T05:31:43.290Z,2.90
2019-05-11T05:34:33.950Z,3.05
2019-05-11T05:37:24.793Z,2.70
2019-05-11T05:40:15.200Z,2.70
2019-05-11T05:43:05.764Z,2.87
2019-05-11T05:45:56.376Z,2.93
2019-05-11T05:48:46.920Z,2.67
2019-05-11T05:51:39.951Z,2.53
2019-05-11T05:54:30.651Z,2.50
2019-05-11T05:57:21.173Z,2.53
2019-05-11T06:00:14.471Z,2.37
2019-05-11T06:03:05.123Z,2.57
2019-05-11T06:05:55.689Z,2.60
2019-05-11T06:08:46.315Z,3.00
2019-05-11T06:11:39.416Z,2.70
2019-05-11T06:14:29.940Z,2.60
2019-05-11T06:17:20.712Z,2.60
2019-05-11T06:20:11.956Z,2.60
2019-05-11T06:23:02.523Z,2.57
2019-05-11T06:25:52.985Z,2.67
2019-05-11T06:28:43.529Z,2.80
2019-05-11T06:31:34.517Z,2.97
2019-05-11T06:34:25.230Z,2.80
2019-05-11T06:37:15.829Z,2.90
2019-05-11T06:40:07.036Z,2.90
2019-05-11T06:42:57.529Z,3.13
2019-05-11T06:45:48.200Z,2.73
2019-05-11T06:48:38.799Z,2.90
2019-05-11T06:51:29.529Z,3.27
2019-05-11T06:54:20.165Z,3.00
2019-05-11T06:57:10.677Z,3.00
2019-05-11T07:00:01.402Z,2.97
2019-05-11T07:02:52.114Z,2.97
2019-05-11T07:05:42.694Z,2.90
2019-05-11T07:08:36.087Z,3.30
2019-05-11T07:11:27.531Z,2.90
2019-05-11T07:14:20.967Z,3.10
2019-05-11T07:17:09.808Z,3.20
2019-05-11T07:20:00.361Z,3.70
2019-05-11T07:22:50.609Z,3.50
2019-05-11T07:25:41.344Z,3.00
2019-05-11T07:28:31.905Z,3.10
2019-05-11T07:31:22.609Z,3.27
2019-05-11T07:34:13.212Z,3.40
2019-05-11T07:37:03.908Z,3.25
2019-05-11T07:39:54.920Z,2.80
2019-05-11T07:42:48.368Z,2.80
2019-05-11T07:45:38.814Z,2.30
2019-05-11T07:48:29.876Z,2.83
2019-05-11T07:51:23.305Z,2.62
2019-05-11T07:54:13.992Z,2.55
2019-05-11T07:57:05.019Z,2.20
2019-05-11T07:59:57.863Z,2.10
2019-05-11T08:02:48.925Z,2.10
2019-05-11T08:05:39.802Z,2.12
2019-05-11T08:08:30.749Z,2.15
2019-05-11T08:11:21.822Z,2.42
2019-05-11T08:14:12.957Z,2.52
2019-05-11T08:17:03.863Z,2.30
2019-05-11T08:19:54.539Z,2.00
2019-05-11T08:22:45.463Z,2.20
2019-05-11T08:25:37.933Z,2.08
2019-05-11T08:28:28.883Z,2.20
2019-05-11T08:31:19.653Z,2.67
2019-05-11T08:34:10.548Z,2.35
2019-05-11T08:37:01.380Z,2.62
2019-05-11T08:39:52.266Z,2.40
2019-05-11T08:42:42.853Z,2.27
2019-05-11T08:45:33.723Z,2.37
2019-05-11T08:48:24.272Z,2.20
2019-05-11T08:51:15.208Z,2.40
2019-05-11T08:54:08.758Z,2.30
2019-05-11T08:56:58.949Z,1.82
2019-05-11T08:59:49.768Z,2.08
2019-05-11T09:02:40.973Z,2.42
2019-05-11T09:05:31.673Z,2.47
2019-05-11T09:08:22.595Z,2.40
2019-05-11T09:11:13.368Z,2.30
2019-05-11T09:14:04.080Z,2.70
2019-05-11T09:16:54.893Z,2.60
2019-05-11T09:19:47.936Z,2.40
2019-05-11T09:22:38.284Z,2.33
2019-05-11T09:25:29.081Z,2.95
2019-05-11T09:28:19.897Z,2.67
2019-05-11T09:31:10.604Z,2.35
2019-05-11T09:34:01.411Z,2.40
2019-05-11T09:36:52.292Z,2.55
2019-05-11T09:39:43.285Z,2.75
2019-05-11T09:42:34.205Z,2.70
2019-05-11T09:45:25.126Z,2.65
2019-05-11T09:48:18.018Z,2.22
2019-05-11T09:51:08.878Z,2.10
2019-05-11T09:53:59.916Z,2.45
2019-05-11T09:56:50.857Z,2.12
2019-05-11T09:59:41.760Z,2.33
2019-05-11T10:02:32.455Z,2.60
2019-05-11T10:05:23.395Z,2.70
2019-05-11T10:08:18.150Z,2.33
2019-05-11T10:11:08.547Z,2.10
2019-05-11T10:13:59.429Z,2.10
2019-05-11T10:16:50.233Z,2.05
2019-05-11T10:19:41.034Z,2.10
2019-05-11T10:22:32.178Z,1.80
2019-05-11T10:25:23.157Z,1.90
2019-05-11T10:28:14.488Z,2.00
2019-05-11T10:31:05.324Z,1.92
2019-05-11T10:33:57.966Z,1.98
2019-05-11T10:36:48.853Z,1.87
2019-05-11T10:39:39.516Z,1.90
2019-05-11T10:42:30.315Z,2.10
2019-05-11T10:45:21.041Z,1.98
2019-05-11T10:48:11.844Z,1.80
2019-05-11T10:51:02.802Z,1.90
2019-05-11T10:53:53.764Z,1.80
2019-05-11T10:56:44.770Z,1.40
2019-05-11T10:59:35.745Z,1.70
2019-05-11T11:02:27.867Z,1.60
2019-05-11T11:05:18.975Z,1.50
2019-05-11T11:08:09.862Z,1.50
2019-05-11T11:11:00.672Z,1.40
2019-05-11T11:13:51.496Z,1.52
2019-05-11T11:16:43.023Z,1.60
2019-05-11T11:19:33.925Z,1.60
2019-05-11T11:22:39.127Z,1.50
2019-05-11T11:25:18.214Z,1.57
2019-05-11T11:28:09.153Z,1.77
2019-05-11T11:30:59.906Z,1.62
2019-05-11T11:33:49.969Z,1.60
2019-05-11T11:36:40.302Z,1.50
2019-05-11T11:39:30.660Z,1.50
2019-05-11T11:42:20.822Z,1.47
2019-05-11T11:45:11.044Z,1.60
2019-05-11T11:48:01.338Z,1.43
2019-05-11T11:50:51.715Z,1.40
2019-05-11T11:53:43.114Z,1.40
2019-05-11T11:56:33.865Z,1.40
2019-05-11T11:59:24.798Z,1.30
2019-05-11T12:02:15.630Z,1.40
2019-05-11T12:05:08.604Z,1.40
2019-05-11T12:07:58.728Z,1.70
2019-05-11T12:10:48.749Z,1.53
2019-05-11T12:13:38.750Z,1.53
2019-05-11T12:16:29.009Z,1.50
2019-05-11T12:19:19.985Z,1.22
2019-05-11T12:22:11.025Z,1.30
2019-05-11T12:25:01.145Z,1.60
2019-05-11T12:27:51.619Z,1.60
2019-05-11T12:30:42.552Z,1.65
2019-05-11T12:33:32.789Z,1.60
2019-05-11T12:36:23.561Z,1.60
2019-05-11T12:39:13.956Z,1.47
2019-05-11T12:42:04.161Z,1.50
2019-05-11T12:44:54.484Z,1.50
2019-05-11T12:47:44.541Z,1.43
2019-05-11T12:50:37.724Z,1.40
2019-05-11T12:53:28.099Z,1.50
2019-05-11T12:56:19.161Z,1.60
2019-05-11T12:59:09.599Z,1.53
2019-05-11T13:02:00.129Z,1.40
2019-05-11T13:04:53.433Z,1.30
2019-05-11T13:07:43.967Z,1.50
2019-05-11T13:10:37.607Z,1.43
2019-05-11T13:13:28.564Z,1.40
2019-05-11T13:16:18.969Z,1.60
2019-05-11T13:19:09.563Z,1.50
2019-05-11T13:21:59.644Z,1.40
2019-05-11T13:24:50.159Z,1.50
2019-05-11T13:27:40.206Z,1.30
2019-05-11T13:30:30.366Z,1.50
2019-05-11T13:33:20.669Z,1.67
2019-05-11T13:36:10.905Z,1.57
2019-05-11T13:39:00.950Z,1.60
2019-05-11T13:41:52.622Z,1.80
2019-05-11T13:44:42.736Z,1.90
2019-05-11T13:47:32.950Z,1.67
2019-05-11T13:50:23.130Z,1.70
2019-05-11T13:53:13.116Z,1.63
2019-05-11T13:56:03.049Z,1.70
2019-05-11T13:58:53.415Z,1.93
2019-05-11T14:01:43.483Z,1.80
2019-05-11T14:04:33.912Z,1.73
2019-05-11T14:07:24.064Z,1.87
2019-05-11T14:10:14.343Z,1.90
2019-05-11T14:13:04.546Z,1.80
2019-05-11T14:15:54.900Z,1.70
2019-05-11T14:18:45.065Z,1.80
2019-05-11T14:21:35.319Z,1.60
2019-05-11T14:24:25.605Z,1.90
2019-05-11T14:27:17.785Z,1.50
2019-05-11T14:30:08.524Z,1.83
2019-05-11T14:32:58.937Z,1.80
2019-05-11T14:35:49.118Z,1.70
2019-05-11T14:38:39.771Z,1.60
2019-05-11T14:41:30.072Z,1.70
2019-05-11T14:44:20.548Z,1.77
2019-05-11T14:47:10.999Z,1.80
2019-05-11T14:50:01.328Z,1.80
2019-05-11T14:52:51.489Z,1.70
2019-05-11T14:55:41.821Z,1.83
2019-05-11T14:58:31.944Z,1.60
2019-05-11T15:01:22.260Z,1.60
2019-05-11T15:04:12.453Z,1.40
2019-05-11T15:07:02.615Z,1.60
2019-05-11T15:09:52.645Z,1.80
2019-05-11T15:12:43.399Z,1.97
2019-05-11T15:15:33.524Z,1.70
2019-05-11T15:18:35.267Z,1.67
2019-05-11T15:21:15.431Z,1.70
2019-05-11T15:24:05.704Z,1.80
2019-05-11T15:26:57.544Z,1.87
2019-05-11T15:29:47.881Z,2.10
2019-05-11T15:32:38.595Z,2.30
2019-05-11T15:35:29.360Z,2.33
2019-05-11T15:38:19.539Z,2.03
2019-05-11T15:41:09.841Z,2.00
2019-05-11T15:44:00.151Z,2.10
2019-05-11T15:46:50.327Z,2.10
2019-05-11T15:49:40.465Z,2.23
2019-05-11T15:52:30.849Z,2.17
2019-05-11T15:55:21.057Z,2.30
2019-05-11T15:58:11.333Z,2.43
2019-05-11T16:01:01.584Z,2.53
2019-05-11T16:03:51.968Z,2.80
2019-05-11T16:06:41.888Z,2.67
2019-05-11T16:09:32.229Z,2.80
2019-05-11T16:12:22.453Z,2.90
2019-05-11T16:15:12.636Z,2.90
2019-05-11T16:18:03.002Z,2.90
2019-05-11T16:20:53.328Z,2.80
2019-05-11T16:23:43.609Z,2.80
2019-05-11T16:26:33.864Z,2.80
2019-05-11T16:29:24.104Z,2.50
2019-05-11T16:32:14.391Z,3.00
2019-05-11T16:35:04.945Z,2.77
2019-05-11T16:37:55.410Z,2.67
2019-05-11T16:40:47.900Z,2.50
2019-05-11T16:43:38.478Z,2.50
2019-05-11T16:46:28.969Z,2.57
2019-05-11T16:49:28.618Z,2.40
2019-05-11T16:52:11.310Z,2.07
2019-05-11T16:55:01.735Z,2.77
2019-05-11T16:57:52.985Z,2.20
2019-05-11T17:00:43.001Z,2.40
2019-05-11T17:03:32.960Z,2.33
2019-05-11T17:06:23.279Z,2.63
2019-05-11T17:09:13.483Z,2.93
2019-05-11T17:12:03.826Z,2.80
2019-05-11T17:15:00.600Z,2.60
2019-05-11T17:17:50.864Z,2.73
2019-05-11T17:20:41.083Z,2.63
2019-05-11T17:23:31.487Z,3.30
2019-05-11T17:26:21.441Z,2.90
2019-05-11T17:29:11.530Z,3.10
2019-05-11T17:32:01.968Z,2.70
2019-05-11T17:34:52.389Z,3.10
2019-05-11T17:37:42.313Z,3.13
2019-05-11T17:40:32.678Z,3.03
2019-05-11T17:43:22.964Z,3.00
2019-05-11T17:46:13.239Z,3.33
2019-05-11T17:49:03.261Z,3.40
2019-05-11T17:51:53.604Z,3.60
2019-05-11T17:54:43.891Z,3.53
2019-05-11T17:57:34.189Z,3.70
2019-05-11T18:00:24.461Z,3.10
2019-05-11T18:03:14.809Z,3.00
2019-05-11T18:06:05.037Z,3.10
2019-05-11T18:08:55.617Z,3.20
2019-05-11T18:11:48.114Z,3.20
2019-05-11T18:14:39.463Z,3.60
2019-05-11T18:17:29.525Z,3.50
2019-05-11T18:20:21.772Z,3.60
2019-05-11T18:23:11.630Z,3.60
2019-05-11T18:26:02.959Z,3.33
2019-05-11T18:28:53.136Z,3.30
2019-05-11T18:31:43.494Z,3.07
2019-05-11T18:34:33.526Z,2.67
2019-05-11T18:37:23.938Z,2.97
2019-05-11T18:40:14.443Z,3.40
2019-05-11T18:43:04.861Z,3.33
2019-05-11T18:45:55.033Z,3.10
2019-05-11T18:48:45.370Z,3.13
2019-05-11T18:51:37.813Z,3.20
2019-05-11T18:54:28.401Z,2.80
2019-05-11T18:57:18.844Z,2.53
2019-05-11T19:00:09.080Z,2.90
2019-05-11T19:02:59.753Z,2.50
2019-05-11T19:05:50.044Z,2.43
2019-05-11T19:08:40.272Z,2.50
2019-05-11T19:11:30.753Z,2.20
2019-05-11T19:14:21.191Z,2.17
2019-05-11T19:17:11.201Z,2.10
2019-05-11T19:20:01.442Z,2.40
2019-05-11T19:22:51.708Z,2.77
2019-05-11T19:25:42.008Z,2.80
2019-05-11T19:28:32.133Z,2.50
2019-05-11T19:31:22.526Z,3.00
2019-05-11T19:34:12.720Z,2.50
2019-05-11T19:37:03.203Z,2.90
2019-05-11T19:39:53.588Z,3.50
2019-05-11T19:42:58.772Z,3.27
2019-05-11T19:45:48.806Z,4.20
2019-05-11T19:48:38.830Z,3.40
2019-05-11T19:51:29.248Z,4.23
2019-05-11T19:54:19.527Z,3.87
2019-05-11T19:57:09.849Z,3.57
2019-05-11T20:00:01.021Z,3.97
2019-05-11T20:02:51.184Z,3.90
2019-05-11T20:05:41.529Z,4.20
2019-05-11T20:08:31.902Z,4.63
2019-05-11T20:11:22.273Z,4.33
2019-05-11T20:14:12.523Z,4.30
2019-05-11T20:17:02.875Z,4.50
2019-05-11T20:19:53.059Z,4.97
2019-05-11T20:22:43.388Z,5.27
2019-05-11T20:25:33.632Z,5.53
2019-05-11T20:28:23.916Z,6.07
2019-05-11T20:31:13.953Z,6.00
2019-05-11T20:34:04.344Z,6.27
2019-05-11T20:36:54.773Z,5.60
2019-05-11T20:39:45.056Z,6.07
2019-05-11T20:42:37.936Z,5.90
2019-05-11T20:45:28.540Z,5.70
2019-05-11T20:48:19.097Z,5.60
2019-05-11T20:51:09.176Z,6.30
2019-05-11T20:53:59.387Z,5.60
2019-05-11T20:56:49.590Z,6.17
2019-05-11T20:59:39.815Z,5.90
2019-05-11T21:02:30.127Z,5.40
2019-05-11T21:05:20.285Z,5.93
2019-05-11T21:08:10.676Z,5.67
2019-05-11T21:11:01.378Z,5.27
2019-05-11T21:13:51.577Z,4.83
2019-05-11T21:16:41.616Z,5.50
2019-05-11T21:19:31.856Z,5.30
2019-05-11T21:22:21.926Z,4.90
2019-05-11T21:25:12.261Z,5.27
2019-05-11T21:28:02.266Z,5.40
2019-05-11T21:30:52.545Z,5.30
2019-05-11T21:33:42.700Z,4.73
2019-05-11T21:36:34.245Z,5.10
2019-05-11T21:39:24.461Z,4.87
2019-05-11T21:42:14.808Z,4.83
2019-05-11T21:45:05.130Z,4.70
2019-05-11T21:47:55.204Z,5.13
2019-05-11T21:50:46.692Z,4.70
2019-05-11T21:53:38.159Z,5.13
2019-05-11T21:56:28.982Z,4.90
2019-05-11T21:59:19.300Z,5.20
2019-05-11T22:02:11.042Z,5.30
2019-05-11T22:05:03.339Z,5.20
2019-05-11T22:07:53.480Z,4.47
2019-05-11T22:10:43.835Z,4.90
2019-05-11T22:13:33.877Z,5.60
2019-05-11T22:16:24.299Z,5.10
2019-05-11T22:19:14.715Z,5.07
2019-05-11T22:22:20.635Z,5.50
2019-05-11T22:24:58.418Z,6.00
2019-05-11T22:27:49.745Z,6.23
2019-05-11T22:30:39.963Z,6.50
2019-05-11T22:33:29.961Z,6.20
2019-05-11T22:36:20.253Z,6.40
2019-05-11T22:39:10.612Z,6.90
2019-05-11T22:42:00.692Z,7.40
2019-05-11T22:44:51.057Z,7.80
2019-05-11T22:47:41.098Z,7.60
2019-05-11T22:50:31.495Z,8.40
2019-05-11T22:53:22.051Z,7.90
2019-05-11T22:56:12.624Z,8.90
2019-05-11T22:59:02.825Z,8.57
2019-05-11T23:01:53.128Z,8.33
2019-05-11T23:04:43.420Z,8.23
2019-05-11T23:07:33.675Z,8.17
2019-05-11T23:10:23.729Z,8.50
2019-05-11T23:13:13.999Z,8.60
2019-05-11T23:16:04.273Z,7.73
2019-05-11T23:18:54.619Z,8.37
2019-05-11T23:21:45.134Z,7.83
2019-05-11T23:24:35.467Z,7.93
2019-05-11T23:27:28.539Z,7.53
2019-05-11T23:30:19.657Z,7.63
2019-05-11T23:33:10.308Z,7.67
2019-05-11T23:36:00.567Z,7.00
2019-05-11T23:38:51.424Z,5.80
2019-05-11T23:41:41.418Z,6.67
2019-05-11T23:44:31.576Z,5.50
2019-05-11T23:47:21.910Z,5.73
2019-05-11T23:50:12.225Z,6.20
2019-05-11T23:53:06.660Z,5.47
2019-05-11T23:55:57.791Z,5.70
2019-05-11T23:58:48.236Z,5.43
